createdAt,value
2018-01-05T00:01:40.314Z,2.92
2018-01-05T00:04:08.584Z,2.92
2018-01-05T00:06:36.861Z,2.83
2018-01-05T00:09:04.311Z,2.37
2018-01-05T00:11:31.965Z,2.63
2018-01-05T00:13:59.518Z,1.73
2018-01-05T00:16:27.296Z,3.30
2018-01-05T00:18:56.835Z,4.23
2018-01-05T00:21:24.300Z,1.73
2018-01-05T00:23:51.794Z,2.72
2018-01-05T00:26:19.401Z,2.80
2018-01-05T00:28:47.049Z,2.42
2018-01-05T00:31:15.620Z,2.37
2018-01-05T00:33:43.120Z,4.07
2018-01-05T00:36:10.600Z,2.37
2018-01-05T00:38:38.260Z,2.33
2018-01-05T00:41:05.758Z,2.23
2018-01-05T00:43:33.384Z,3.10
2018-01-05T00:46:01.099Z,1.83
2018-01-05T00:48:28.847Z,2.10
2018-01-05T00:50:56.309Z,2.12
2018-01-05T00:53:23.777Z,2.10
2018-01-05T00:55:51.469Z,2.37
2018-01-05T00:58:19.074Z,2.93
2018-01-05T01:00:48.204Z,3.13
2018-01-05T01:03:15.678Z,2.67
2018-01-05T01:05:43.135Z,4.50
2018-01-05T01:08:10.778Z,3.40
2018-01-05T01:10:38.204Z,2.70
2018-01-05T01:13:07.328Z,2.87
2018-01-05T01:15:37.889Z,2.07
2018-01-05T01:18:05.353Z,2.50
2018-01-05T01:20:33.319Z,3.73
2018-01-05T01:23:00.763Z,3.40
2018-01-05T01:25:28.228Z,2.80
2018-01-05T01:27:56.331Z,3.85
2018-01-05T01:30:23.857Z,2.83
2018-01-05T01:32:54.899Z,3.80
2018-01-05T01:35:22.371Z,3.00
2018-01-05T01:37:49.848Z,3.67
2018-01-05T01:40:17.319Z,3.03
2018-01-05T01:42:44.829Z,3.43
2018-01-05T01:45:12.339Z,3.60
2018-01-05T01:47:40.065Z,3.50
2018-01-05T01:50:07.548Z,3.17
2018-01-05T01:52:35.300Z,5.18
2018-01-05T01:55:02.772Z,2.60
2018-01-05T01:57:30.262Z,3.43
2018-01-05T01:59:57.976Z,2.73
2018-01-05T02:02:32.852Z,3.17
2018-01-05T02:05:01.138Z,3.15
2018-01-05T02:07:28.700Z,3.30
2018-01-05T02:09:56.153Z,3.33
2018-01-05T02:12:23.583Z,3.28
2018-01-05T02:14:51.316Z,3.47
2018-01-05T02:17:25.960Z,2.82
2018-01-05T02:19:54.500Z,3.00
2018-01-05T02:22:22.006Z,3.10
2018-01-05T02:24:50.168Z,2.58
2018-01-05T02:27:18.431Z,3.33
2018-01-05T02:29:45.888Z,2.73
2018-01-05T02:32:13.345Z,3.57
2018-01-05T02:34:40.811Z,3.70
2018-01-05T02:37:08.465Z,2.25
2018-01-05T02:39:36.009Z,2.70
2018-01-05T02:42:04.093Z,2.82
2018-01-05T02:44:31.552Z,5.40
2018-01-05T02:46:59.207Z,2.37
2018-01-05T02:49:26.752Z,3.00
2018-01-05T02:51:54.222Z,1.80
2018-01-05T02:54:21.677Z,2.70
2018-01-05T02:56:49.183Z,2.72
2018-01-05T02:59:16.641Z,1.87
2018-01-05T03:01:44.154Z,3.00
2018-01-05T03:04:12.092Z,2.67
2018-01-05T03:06:39.536Z,2.50
2018-01-05T03:09:07.013Z,2.63
2018-01-05T03:11:34.451Z,3.00
2018-01-05T03:14:01.905Z,2.47
2018-01-05T03:16:29.362Z,2.90
2018-01-05T03:18:56.802Z,3.10
2018-01-05T03:21:24.234Z,2.50
2018-01-05T03:23:51.786Z,4.10
2018-01-05T03:26:19.451Z,1.80
2018-01-05T03:28:46.894Z,2.47
2018-01-05T03:31:15.298Z,2.67
2018-01-05T03:33:42.741Z,2.77
2018-01-05T03:36:10.188Z,2.80
2018-01-05T03:38:37.673Z,4.78
2018-01-05T03:41:05.885Z,2.62
2018-01-05T03:43:34.130Z,4.05
2018-01-05T03:46:01.596Z,3.28
2018-01-05T03:48:32.551Z,2.53
2018-01-05T03:50:59.998Z,3.03
2018-01-05T03:53:27.477Z,2.20
2018-01-05T03:55:54.926Z,2.10
2018-01-05T03:58:22.535Z,2.97
2018-01-05T04:00:50.014Z,2.40
2018-01-05T04:03:18.197Z,2.22
2018-01-05T04:05:49.820Z,3.30
2018-01-05T04:08:17.280Z,2.90
2018-01-05T04:10:44.752Z,2.73
2018-01-05T04:13:12.200Z,1.90
2018-01-05T04:15:39.750Z,3.30
2018-01-05T04:18:08.033Z,2.80
2018-01-05T04:20:40.172Z,3.23
2018-01-05T04:23:08.385Z,3.40
2018-01-05T04:25:36.724Z,3.40
2018-01-05T04:28:04.193Z,3.53
2018-01-05T04:30:31.676Z,3.20
2018-01-05T04:32:59.916Z,2.45
2018-01-05T04:35:28.169Z,4.30
2018-01-05T04:37:55.644Z,3.40
2018-01-05T04:40:23.101Z,3.70
2018-01-05T04:42:50.567Z,3.20
2018-01-05T04:45:18.024Z,2.87
2018-01-05T04:47:45.481Z,2.73
2018-01-05T04:50:12.952Z,3.73
2018-01-05T04:52:41.320Z,2.93
2018-01-05T04:55:09.045Z,3.60
2018-01-05T04:57:36.498Z,2.23
2018-01-05T05:00:04.021Z,3.30
2018-01-05T05:02:31.556Z,3.03
2018-01-05T05:05:03.009Z,4.13
2018-01-05T05:07:31.688Z,3.60
2018-01-05T05:09:59.161Z,3.50
2018-01-05T05:12:26.780Z,3.07
2018-01-05T05:14:55.149Z,3.27
2018-01-05T05:17:22.748Z,4.22
2018-01-05T05:19:50.221Z,2.90
2018-01-05T05:22:17.657Z,2.63
2018-01-05T05:24:45.444Z,4.20
2018-01-05T05:27:12.864Z,2.87
2018-01-05T05:29:40.316Z,3.20
2018-01-05T05:32:07.781Z,2.30
2018-01-05T05:34:35.269Z,4.70
2018-01-05T05:37:03.820Z,3.60
2018-01-05T05:39:32.101Z,3.40
2018-01-05T05:41:59.564Z,3.20
2018-01-05T05:44:27.127Z,2.50
2018-01-05T05:46:54.698Z,3.90
2018-01-05T05:49:22.667Z,4.30
2018-01-05T05:51:50.111Z,4.68
2018-01-05T05:54:17.577Z,4.00
2018-01-05T05:56:45.032Z,6.13
2018-01-05T05:59:12.502Z,3.55
2018-01-05T06:01:40.033Z,3.75
2018-01-05T06:04:07.479Z,4.40
2018-01-05T06:06:38.647Z,5.00
2018-01-05T06:09:07.320Z,3.10
2018-01-05T06:11:34.790Z,3.17
2018-01-05T06:14:02.285Z,3.67
2018-01-05T06:16:29.740Z,2.90
2018-01-05T06:18:57.288Z,3.87
2018-01-05T06:21:28.679Z,3.97
2018-01-05T06:23:56.284Z,3.00
2018-01-05T06:26:23.743Z,3.08
2018-01-05T06:28:52.232Z,2.73
2018-01-05T06:31:22.148Z,4.62
2018-01-05T06:33:49.600Z,3.83
2018-01-05T06:36:24.650Z,3.62
2018-01-05T06:38:53.001Z,2.87
2018-01-05T06:41:20.464Z,2.62
2018-01-05T06:43:47.913Z,4.00
2018-01-05T06:46:16.312Z,2.65
2018-01-05T06:48:43.744Z,3.03
2018-01-05T06:51:15.916Z,3.50
2018-01-05T06:53:43.356Z,2.67
2018-01-05T06:56:11.376Z,4.97
2018-01-05T06:58:38.820Z,4.33
2018-01-05T07:01:07.061Z,3.25
2018-01-05T07:03:34.668Z,3.30
2018-01-05T07:06:02.132Z,3.20
2018-01-05T07:08:37.249Z,4.43
2018-01-05T07:11:05.491Z,4.13
2018-01-05T07:13:32.973Z,3.00
2018-01-05T07:16:00.860Z,4.18
2018-01-05T07:18:28.294Z,3.30
2018-01-05T07:20:55.754Z,3.80
2018-01-05T07:23:24.028Z,3.00
2018-01-05T07:25:51.468Z,2.80
2018-01-05T07:28:18.924Z,3.07
2018-01-05T07:30:46.510Z,3.58
2018-01-05T07:33:15.622Z,2.70
2018-01-05T07:35:43.098Z,3.40
2018-01-05T07:38:10.559Z,2.70
2018-01-05T07:40:38.143Z,3.03
2018-01-05T07:43:05.780Z,3.10
2018-01-05T07:45:33.842Z,4.00
2018-01-05T07:48:01.278Z,3.20
2018-01-05T07:50:29.021Z,3.47
2018-01-05T07:52:56.498Z,3.33
2018-01-05T07:55:23.960Z,4.17
2018-01-05T07:57:51.452Z,2.92
2018-01-05T08:00:18.952Z,3.07
2018-01-05T08:02:46.419Z,3.30
2018-01-05T08:05:14.650Z,3.37
2018-01-05T08:07:42.377Z,3.45
2018-01-05T08:10:09.845Z,2.80
2018-01-05T08:12:37.357Z,3.03
2018-01-05T08:15:04.826Z,3.70
2018-01-05T08:17:32.293Z,2.60
2018-01-05T08:19:59.827Z,2.70
2018-01-05T08:22:27.303Z,2.70
2018-01-05T08:24:54.765Z,2.90
2018-01-05T08:27:22.983Z,2.97
2018-01-05T08:29:50.471Z,3.27
2018-01-05T08:32:17.980Z,2.92
2018-01-05T08:34:45.456Z,3.87
2018-01-05T08:37:12.948Z,3.20
2018-01-05T08:39:40.609Z,2.87
2018-01-05T08:42:08.389Z,3.10
2018-01-05T08:44:35.861Z,3.28
2018-01-05T08:47:05.000Z,2.65
2018-01-05T08:49:32.476Z,2.83
2018-01-05T08:51:59.947Z,2.60
2018-01-05T08:54:27.468Z,3.30
2018-01-05T08:56:55.125Z,3.00
2018-01-05T08:59:23.272Z,3.55
2018-01-05T09:01:50.761Z,3.12
2018-01-05T09:04:18.206Z,2.63
2018-01-05T09:06:45.712Z,2.63
2018-01-05T09:09:13.192Z,3.15
2018-01-05T09:11:40.687Z,2.40
2018-01-05T09:14:08.385Z,2.83
2018-01-05T09:16:36.166Z,2.80
2018-01-05T09:19:03.600Z,2.33
2018-01-05T09:21:31.694Z,3.20
2018-01-05T09:24:02.196Z,2.70
2018-01-05T09:26:29.664Z,3.15
2018-01-05T09:28:57.358Z,2.35
2018-01-05T09:31:24.804Z,3.37
2018-01-05T09:33:52.353Z,2.70
2018-01-05T09:36:20.738Z,2.65
2018-01-05T09:38:48.189Z,2.58
2018-01-05T09:41:15.641Z,2.40
2018-01-05T09:43:43.088Z,2.90
2018-01-05T09:46:10.633Z,1.83
2018-01-05T09:48:38.072Z,3.60
2018-01-05T09:51:05.819Z,2.80
2018-01-05T09:53:33.311Z,3.30
2018-01-05T09:56:00.792Z,3.53
2018-01-05T09:58:28.224Z,2.03
2018-01-05T10:00:55.692Z,2.10
2018-01-05T10:03:24.891Z,1.97
2018-01-05T10:05:52.341Z,2.70
2018-01-05T10:08:19.772Z,2.63
2018-01-05T10:10:47.233Z,3.93
2018-01-05T10:13:14.709Z,3.73
2018-01-05T10:15:43.760Z,4.20
2018-01-05T10:18:11.209Z,3.93
2018-01-05T10:20:38.880Z,3.57
2018-01-05T10:23:06.322Z,2.23
2018-01-05T10:25:33.789Z,2.00
2018-01-05T10:28:01.538Z,2.63
2018-01-05T10:30:29.001Z,2.60
2018-01-05T10:32:57.053Z,2.25
2018-01-05T10:35:24.500Z,3.17
2018-01-05T10:37:52.049Z,2.47
2018-01-05T10:40:19.504Z,2.50
2018-01-05T10:42:46.964Z,2.30
2018-01-05T10:45:14.628Z,1.80
2018-01-05T10:47:42.078Z,2.07
2018-01-05T10:50:10.449Z,2.20
2018-01-05T10:52:37.965Z,4.50
2018-01-05T10:55:08.434Z,2.80
2018-01-05T10:57:35.963Z,1.73
2018-01-05T11:00:04.152Z,2.53
2018-01-05T11:02:31.624Z,2.10
2018-01-05T11:04:59.099Z,2.12
2018-01-05T11:07:26.651Z,2.10
2018-01-05T11:09:55.227Z,2.20
2018-01-05T11:12:22.669Z,1.93
2018-01-05T11:14:50.196Z,2.67
2018-01-05T11:17:17.668Z,1.93
2018-01-05T11:19:45.161Z,2.50
2018-01-05T11:22:12.755Z,2.87
2018-01-05T11:24:40.961Z,2.47
2018-01-05T11:27:08.604Z,2.53
2018-01-05T11:29:36.063Z,2.60
2018-01-05T11:32:03.501Z,2.00
2018-01-05T11:34:30.960Z,2.40
2018-01-05T11:36:58.414Z,2.30
2018-01-05T11:39:25.889Z,2.20
2018-01-05T11:41:53.579Z,1.95
2018-01-05T11:44:21.941Z,2.20
2018-01-05T11:46:50.138Z,2.00
2018-01-05T11:49:17.604Z,2.57
2018-01-05T11:51:45.075Z,2.13
2018-01-05T11:54:12.551Z,2.50
2018-01-05T11:56:40.007Z,2.43
2018-01-05T11:59:07.511Z,2.00
2018-01-05T12:01:35.947Z,2.05
2018-01-05T12:04:04.163Z,2.92
2018-01-05T12:06:31.635Z,1.87
2018-01-05T12:08:59.087Z,1.93
2018-01-05T12:11:26.535Z,2.23
2018-01-05T12:13:54.929Z,1.80
2018-01-05T12:16:22.408Z,2.97
2018-01-05T12:18:49.861Z,3.27
2018-01-05T12:21:17.504Z,2.20
2018-01-05T12:23:44.956Z,1.90
2018-01-05T12:26:12.424Z,2.10
2018-01-05T12:28:39.944Z,2.00
2018-01-05T12:31:07.392Z,2.20
2018-01-05T12:33:34.847Z,1.67
2018-01-05T12:36:02.864Z,2.72
2018-01-05T12:38:30.320Z,2.65
2018-01-05T12:40:57.808Z,2.90
2018-01-05T12:43:25.344Z,1.90
2018-01-05T12:45:52.896Z,1.62
2018-01-05T12:48:20.392Z,1.75
2018-01-05T12:50:48.564Z,1.87
2018-01-05T12:53:16.831Z,1.95
2018-01-05T12:55:44.391Z,2.37
2018-01-05T12:58:11.827Z,2.00
2018-01-05T13:00:39.305Z,1.92
2018-01-05T13:03:06.762Z,2.50
2018-01-05T13:05:34.206Z,2.40
2018-01-05T13:08:01.678Z,2.80
2018-01-05T13:10:29.144Z,2.12
2018-01-05T13:12:59.968Z,2.00
2018-01-05T13:15:27.744Z,2.40
2018-01-05T13:17:56.130Z,1.70
2018-01-05T13:20:23.588Z,2.30
2018-01-05T13:22:51.096Z,2.40
2018-01-05T13:25:18.540Z,2.80
2018-01-05T13:27:49.013Z,2.40
2018-01-05T13:30:16.489Z,3.50
2018-01-05T13:32:44.780Z,5.73
2018-01-05T13:35:12.225Z,4.50
2018-01-05T13:37:39.710Z,5.50
2018-01-05T13:40:07.158Z,6.95
2018-01-05T13:42:34.632Z,4.95
2018-01-05T13:45:02.139Z,6.03
2018-01-05T13:47:29.600Z,4.80
2018-01-05T13:49:58.145Z,3.87
2018-01-05T13:52:25.618Z,3.20
2018-01-05T13:54:53.057Z,3.37
2018-01-05T13:57:20.533Z,2.83
2018-01-05T13:59:47.988Z,3.17
2018-01-05T14:02:15.565Z,3.65
2018-01-05T14:04:43.108Z,2.97
2018-01-05T14:07:10.598Z,5.23
2018-01-05T14:09:38.108Z,3.43
2018-01-05T14:12:05.697Z,4.18
2018-01-05T14:14:33.140Z,3.10
2018-01-05T14:17:01.164Z,2.78
2018-01-05T14:19:29.395Z,3.57
2018-01-05T14:21:56.884Z,2.20
2018-01-05T14:24:24.353Z,2.60
2018-01-05T14:26:52.576Z,3.00
2018-01-05T14:29:20.963Z,2.20
2018-01-05T14:31:48.449Z,2.97
2018-01-05T14:34:15.922Z,3.20
2018-01-05T14:36:43.372Z,2.75
2018-01-05T14:39:10.831Z,2.93
2018-01-05T14:41:39.107Z,2.53
2018-01-05T14:44:19.258Z,2.43
2018-01-05T14:46:46.717Z,2.57
2018-01-05T14:49:14.161Z,2.40
2018-01-05T14:51:43.149Z,2.57
2018-01-05T14:54:11.521Z,2.25
2018-01-05T14:56:39.273Z,1.87
2018-01-05T14:59:11.351Z,2.30
2018-01-05T15:01:38.800Z,2.30
2018-01-05T15:04:06.285Z,2.27
2018-01-05T15:06:33.733Z,2.17
2018-01-05T15:09:01.200Z,2.75
2018-01-05T15:11:28.656Z,2.50
2018-01-05T15:13:56.112Z,3.13
2018-01-05T15:16:23.548Z,2.50
2018-01-05T15:18:51.078Z,2.60
2018-01-05T15:21:19.301Z,2.10
2018-01-05T15:23:46.844Z,3.20
2018-01-05T15:26:14.316Z,8.27
2018-01-05T15:28:41.772Z,2.90
2018-01-05T15:31:13.290Z,4.87
2018-01-05T15:33:40.728Z,3.00
2018-01-05T15:36:09.328Z,5.25
2018-01-05T15:38:36.788Z,3.30
2018-01-05T15:41:04.297Z,2.50
2018-01-05T15:43:31.768Z,4.73
2018-01-05T15:45:59.267Z,3.57
2018-01-05T15:48:27.111Z,3.00
2018-01-05T15:50:54.576Z,3.07
2018-01-05T15:53:22.470Z,3.65
2018-01-05T15:55:49.937Z,5.93
2018-01-05T15:58:17.446Z,2.78
2018-01-05T16:00:45.029Z,3.80
2018-01-05T16:03:12.521Z,4.93
2018-01-05T16:05:41.819Z,5.18
2018-01-05T16:08:09.293Z,6.03
2018-01-05T16:10:36.770Z,4.40
2018-01-05T16:13:04.201Z,4.20
2018-01-05T16:15:34.734Z,7.70
2018-01-05T16:18:02.170Z,3.93
2018-01-05T16:20:30.555Z,3.42
2018-01-05T16:22:58.036Z,4.37
2018-01-05T16:25:25.526Z,4.62
2018-01-05T16:27:53.486Z,4.20
2018-01-05T16:30:21.174Z,4.93
2018-01-05T16:32:48.636Z,5.97
2018-01-05T16:35:16.197Z,4.60
2018-01-05T16:37:43.790Z,4.50
2018-01-05T16:40:11.258Z,4.62
2018-01-05T16:42:39.614Z,4.87
2018-01-05T16:45:07.068Z,4.20
2018-01-05T16:47:34.582Z,6.27
2018-01-05T16:50:02.044Z,4.72
2018-01-05T16:52:29.550Z,4.03
2018-01-05T16:54:57.053Z,4.87
2018-01-05T16:57:24.716Z,4.27
2018-01-05T16:59:52.980Z,4.80
2018-01-05T17:02:20.445Z,5.17
2018-01-05T17:04:48.003Z,4.30
2018-01-05T17:07:15.507Z,7.22
2018-01-05T17:09:43.082Z,5.93
2018-01-05T17:12:10.586Z,5.00
2018-01-05T17:14:38.060Z,5.50
2018-01-05T17:17:06.442Z,5.23
2018-01-05T17:19:33.909Z,6.82
2018-01-05T17:22:01.598Z,4.90
2018-01-05T17:24:29.836Z,5.07
2018-01-05T17:26:57.296Z,5.27
2018-01-05T17:29:24.895Z,4.40
2018-01-05T17:31:52.431Z,7.33
2018-01-05T17:34:20.279Z,5.60
2018-01-05T17:36:47.713Z,5.90
2018-01-05T17:39:15.328Z,8.10
2018-01-05T17:41:42.772Z,5.40
2018-01-05T17:44:10.441Z,5.50
2018-01-05T17:46:37.900Z,4.93
2018-01-05T17:49:06.207Z,4.30
2018-01-05T17:51:33.657Z,8.07
2018-01-05T17:54:01.322Z,6.10
2018-01-05T17:56:28.794Z,5.63
2018-01-05T17:58:56.651Z,5.10
2018-01-05T18:01:24.113Z,4.80
2018-01-05T18:03:51.714Z,5.10
2018-01-05T18:06:19.282Z,5.45
2018-01-05T18:08:48.621Z,5.50
2018-01-05T18:11:16.122Z,5.37
2018-01-05T18:13:43.710Z,5.77
2018-01-05T18:16:12.083Z,6.03
2018-01-05T18:18:39.592Z,5.57
2018-01-05T18:21:07.092Z,5.37
2018-01-05T18:23:34.522Z,5.90
2018-01-05T18:26:02.027Z,5.30
2018-01-05T18:28:29.536Z,4.37
2018-01-05T18:30:57.046Z,4.93
2018-01-05T18:33:26.216Z,5.33
2018-01-05T18:35:53.796Z,6.07
2018-01-05T18:38:21.279Z,6.20
2018-01-05T18:40:49.583Z,6.27
2018-01-05T18:43:17.072Z,5.40
2018-01-05T18:45:45.512Z,6.40
2018-01-05T18:48:13.005Z,5.28
2018-01-05T18:50:40.470Z,5.93
2018-01-05T18:53:07.949Z,6.93
2018-01-05T18:55:35.454Z,6.37
2018-01-05T18:58:03.012Z,6.35
2018-01-05T19:00:30.684Z,6.37
2018-01-05T19:02:59.113Z,7.17
2018-01-05T19:05:26.798Z,5.80
2018-01-05T19:07:54.273Z,5.13
2018-01-05T19:10:21.697Z,5.90
2018-01-05T19:12:49.157Z,5.50
2018-01-05T19:15:16.712Z,6.28
2018-01-05T19:17:44.924Z,5.27
2018-01-05T19:20:12.852Z,5.07
2018-01-05T19:22:40.416Z,5.73
2018-01-05T19:25:07.893Z,4.85
2018-01-05T19:27:35.540Z,5.62
2018-01-05T19:30:03.065Z,13.25
2018-01-05T19:32:30.750Z,7.12
2018-01-05T19:34:58.226Z,5.80
2018-01-05T19:37:26.900Z,6.70
2018-01-05T19:39:54.403Z,5.60
2018-01-05T19:42:21.882Z,5.50
2018-01-05T19:44:49.635Z,4.43
2018-01-05T19:47:17.264Z,5.40
2018-01-05T19:49:45.664Z,5.80
2018-01-05T19:52:14.360Z,5.25
2018-01-05T19:54:41.826Z,5.90
2018-01-05T19:57:11.718Z,6.15
2018-01-05T19:59:39.228Z,5.57
2018-01-05T20:02:06.703Z,6.13
2018-01-05T20:04:35.339Z,7.33
2018-01-05T20:07:03.135Z,5.73
2018-01-05T20:09:30.602Z,5.80
2018-01-05T20:11:58.364Z,6.60
2018-01-05T20:14:26.127Z,6.40
2018-01-05T20:16:54.120Z,7.80
2018-01-05T20:19:21.616Z,7.07
2018-01-05T20:21:49.115Z,6.53
2018-01-05T20:24:16.768Z,6.77
2018-01-05T20:26:44.238Z,7.67
2018-01-05T20:29:11.745Z,8.25
2018-01-05T20:31:39.223Z,7.73
2018-01-05T20:34:06.732Z,8.10
2018-01-05T20:36:37.464Z,8.23
2018-01-05T20:39:04.975Z,7.50
2018-01-05T20:41:33.347Z,7.82
2018-01-05T20:44:00.855Z,7.55
2018-01-05T20:46:28.363Z,7.20
2018-01-05T20:48:55.837Z,7.50
2018-01-05T20:51:24.107Z,8.40
2018-01-05T20:53:51.995Z,7.68
2018-01-05T20:56:19.522Z,7.70
2018-01-05T20:58:46.996Z,7.90
2018-01-05T21:01:14.555Z,7.90
2018-01-05T21:03:42.096Z,7.53
2018-01-05T21:06:16.840Z,8.00
2018-01-05T21:08:44.328Z,7.47
2018-01-05T21:11:11.973Z,8.53
2018-01-05T21:13:39.526Z,8.00
2018-01-05T21:16:06.999Z,9.25
2018-01-05T21:18:34.499Z,7.70
2018-01-05T21:21:02.196Z,8.90
2018-01-05T21:23:29.863Z,8.64
2018-01-05T21:25:57.396Z,9.43
2018-01-05T21:28:25.372Z,7.78
2018-01-05T21:30:53.382Z,9.23
2018-01-05T21:33:20.882Z,8.87
2018-01-05T21:35:51.258Z,9.43
2018-01-05T21:38:18.757Z,7.95
2018-01-05T21:40:46.231Z,8.60
2018-01-05T21:43:13.788Z,8.40
2018-01-05T21:45:41.328Z,9.20
2018-01-05T21:48:09.180Z,8.85
2018-01-05T21:50:36.913Z,8.90
2018-01-05T21:53:04.440Z,8.40
2018-01-05T21:55:31.955Z,8.30
2018-01-05T21:57:59.458Z,8.40
2018-01-05T22:00:27.167Z,8.15
2018-01-05T22:02:54.652Z,8.52
2018-01-05T22:05:22.700Z,7.97
2018-01-05T22:07:50.232Z,8.35
2018-01-05T22:10:17.704Z,8.00
2018-01-05T22:12:45.216Z,8.05
2018-01-05T22:15:12.716Z,8.33
2018-01-05T22:17:40.209Z,7.47
2018-01-05T22:20:07.842Z,8.53
2018-01-05T22:22:37.857Z,7.45
2018-01-05T22:25:07.059Z,8.75
2018-01-05T22:27:34.570Z,7.87
2018-01-05T22:30:03.209Z,7.20
2018-01-05T22:32:32.255Z,6.97
2018-01-05T22:34:59.987Z,6.83
2018-01-05T22:37:27.485Z,7.20
2018-01-05T22:39:55.224Z,6.53
2018-01-05T22:42:22.895Z,7.12
2018-01-05T22:44:50.591Z,6.97
2018-01-05T22:47:18.056Z,7.60
2018-01-05T22:49:45.575Z,6.80
2018-01-05T22:52:13.052Z,6.78
2018-01-05T22:54:40.556Z,5.80
2018-01-05T22:57:08.372Z,5.47
2018-01-05T22:59:36.614Z,5.60
2018-01-05T23:02:04.215Z,6.57
2018-01-05T23:04:31.734Z,6.20
2018-01-05T23:06:59.211Z,5.73
2018-01-05T23:09:26.873Z,5.80
2018-01-05T23:11:54.353Z,6.53
2018-01-05T23:14:21.872Z,6.10
2018-01-05T23:16:49.355Z,5.40
2018-01-05T23:19:18.520Z,6.03
2018-01-05T23:21:46.210Z,5.85
2018-01-05T23:24:13.724Z,5.63
2018-01-05T23:26:41.199Z,5.17
2018-01-05T23:29:08.999Z,6.90
2018-01-05T23:31:37.194Z,6.60
2018-01-05T23:34:04.692Z,7.43
2018-01-05T23:36:32.196Z,7.53
2018-01-05T23:39:03.497Z,6.83
2018-01-05T23:41:31.176Z,6.05
2018-01-05T23:43:58.984Z,7.00
2018-01-05T23:46:26.491Z,7.65
2018-01-05T23:48:54.015Z,7.30
2018-01-05T23:51:21.532Z,8.80
2018-01-05T23:53:49.008Z,7.07
2018-01-05T23:56:16.535Z,8.00
2018-01-05T23:58:43.968Z,7.93
